sensor_id;sensor_type;location;lat;lon;timestamp;temperature;humidity
14283;DHT22;7225;59.282;18.344;2022-10-14T00:01:23;11.90;99.90
14283;DHT22;7225;59.282;18.344;2022-10-14T00:03:52;11.90;99.90
14283;DHT22;7225;59.282;18.344;2022-10-14T00:06:23;11.80;99.90
14283;DHT22;7225;59.282;18.344;2022-10-14T00:08:53;11.80;99.90
14283;DHT22;7225;59.282;18.344;2022-10-14T00:11:26;11.90;99.90
14283;DHT22;7225;59.282;18.344;2022-10-14T00:13:59;11.80;99.90
14283;DHT22;7225;59.282;18.344;2022-10-14T00:16:33;11.80;99.90
14283;DHT22;7225;59.282;18.344;2022-10-14T00:19:03;11.80;99.90
14283;DHT22;7225;59.282;18.344;2022-10-14T00:21:32;11.70;99.90
14283;DHT22;7225;59.282;18.344;2022-10-14T00:24:01;11.70;99.90
14283;DHT22;7225;59.282;18.344;2022-10-14T00:26:32;11.70;99.90
14283;DHT22;7225;59.282;18.344;2022-10-14T00:29:02;11.60;99.90
14283;DHT22;7225;59.282;18.344;2022-10-14T00:31:31;11.60;99.90
14283;DHT22;7225;59.282;18.344;2022-10-14T00:34:00;11.60;99.90
14283;DHT22;7225;59.282;18.344;2022-10-14T00:36:28;11.60;99.90
14283;DHT22;7225;59.282;18.344;2022-10-14T00:38:56;11.60;99.90
14283;DHT22;7225;59.282;18.344;2022-10-14T00:41:30;11.60;99.90
14283;DHT22;7225;59.282;18.344;2022-10-14T00:44:03;11.70;99.90
14283;DHT22;7225;59.282;18.344;2022-10-14T00:46:37;11.70;99.90
14283;DHT22;7225;59.282;18.344;2022-10-14T00:49:30;11.70;99.90
14283;DHT22;7225;59.282;18.344;2022-10-14T00:52:05;11.70;99.90
14283;DHT22;7225;59.282;18.344;2022-10-14T00:54:49;11.60;99.90
14283;DHT22;7225;59.282;18.344;2022-10-14T00:57:18;11.60;99.90
14283;DHT22;7225;59.282;18.344;2022-10-14T00:59:48;11.60;99.90
14283;DHT22;7225;59.282;18.344;2022-10-14T01:02:17;11.60;99.90
14283;DHT22;7225;59.282;18.344;2022-10-14T01:04:44;11.60;99.90
14283;DHT22;7225;59.282;18.344;2022-10-14T01:07:37;11.60;99.90
14283;DHT22;7225;59.282;18.344;2022-10-14T01:10:28;11.60;99.90
14283;DHT22;7225;59.282;18.344;2022-10-14T01:13:22;11.50;99.90
14283;DHT22;7225;59.282;18.344;2022-10-14T01:21:43;11.60;99.90
14283;DHT22;7225;59.282;18.344;2022-10-14T01:27:00;11.60;99.90
14283;DHT22;7225;59.282;18.344;2022-10-14T01:35:10;11.60;99.90
14283;DHT22;7225;59.282;18.344;2022-10-14T01:37:46;11.60;99.90
14283;DHT22;7225;59.282;18.344;2022-10-14T01:40:31;11.60;99.90
14283;DHT22;7225;59.282;18.344;2022-10-14T01:43:00;11.60;99.90
14283;DHT22;7225;59.282;18.344;2022-10-14T01:45:31;11.60;99.90
14283;DHT22;7225;59.282;18.344;2022-10-14T01:48:03;11.60;99.90
14283;DHT22;7225;59.282;18.344;2022-10-14T01:50:34;11.60;99.90
14283;DHT22;7225;59.282;18.344;2022-10-14T01:53:12;11.50;99.90
14283;DHT22;7225;59.282;18.344;2022-10-14T01:55:43;11.60;99.90
14283;DHT22;7225;59.282;18.344;2022-10-14T01:58:15;11.60;99.90
14283;DHT22;7225;59.282;18.344;2022-10-14T02:00:45;11.60;99.90
14283;DHT22;7225;59.282;18.344;2022-10-14T02:03:15;11.60;99.90
14283;DHT22;7225;59.282;18.344;2022-10-14T02:05:48;11.60;99.90
14283;DHT22;7225;59.282;18.344;2022-10-14T02:11:24;11.50;99.90
14283;DHT22;7225;59.282;18.344;2022-10-14T02:14:09;11.50;99.90
14283;DHT22;7225;59.282;18.344;2022-10-14T02:17:40;11.50;99.90
14283;DHT22;7225;59.282;18.344;2022-10-14T02:20:19;11.50;99.90
14283;DHT22;7225;59.282;18.344;2022-10-14T02:22:51;11.50;99.90
14283;DHT22;7225;59.282;18.344;2022-10-14T02:25:25;11.50;99.90
14283;DHT22;7225;59.282;18.344;2022-10-14T02:27:53;11.50;99.90
14283;DHT22;7225;59.282;18.344;2022-10-14T02:30:21;11.50;99.90
14283;DHT22;7225;59.282;18.344;2022-10-14T02:32:50;11.60;99.90
14283;DHT22;7225;59.282;18.344;2022-10-14T02:35:21;11.50;99.90
14283;DHT22;7225;59.282;18.344;2022-10-14T02:37:52;11.60;99.90
14283;DHT22;7225;59.282;18.344;2022-10-14T02:40:29;11.50;99.90
14283;DHT22;7225;59.282;18.344;2022-10-14T02:43:00;11.50;99.90
14283;DHT22;7225;59.282;18.344;2022-10-14T02:45:29;11.50;99.90
14283;DHT22;7225;59.282;18.344;2022-10-14T02:47:56;11.50;99.90
14283;DHT22;7225;59.282;18.344;2022-10-14T02:50:24;11.60;99.90
14283;DHT22;7225;59.282;18.344;2022-10-14T02:52:52;11.60;99.90
14283;DHT22;7225;59.282;18.344;2022-10-14T02:55:20;11.50;99.90
14283;DHT22;7225;59.282;18.344;2022-10-14T02:57:49;11.60;99.90
14283;DHT22;7225;59.282;18.344;2022-10-14T03:00:19;11.50;99.90
14283;DHT22;7225;59.282;18.344;2022-10-14T03:02:49;11.60;99.90
14283;DHT22;7225;59.282;18.344;2022-10-14T03:05:19;11.50;99.90
14283;DHT22;7225;59.282;18.344;2022-10-14T03:07:47;11.50;99.90
14283;DHT22;7225;59.282;18.344;2022-10-14T03:10:16;11.50;99.90
14283;DHT22;7225;59.282;18.344;2022-10-14T03:12:44;11.50;99.90
14283;DHT22;7225;59.282;18.344;2022-10-14T03:15:13;11.60;99.90
14283;DHT22;7225;59.282;18.344;2022-10-14T03:17:42;11.50;99.90
14283;DHT22;7225;59.282;18.344;2022-10-14T03:20:10;11.50;99.90
14283;DHT22;7225;59.282;18.344;2022-10-14T03:22:38;11.50;99.90
14283;DHT22;7225;59.282;18.344;2022-10-14T03:25:06;11.40;99.90
14283;DHT22;7225;59.282;18.344;2022-10-14T03:27:35;11.30;99.90
14283;DHT22;7225;59.282;18.344;2022-10-14T03:30:04;11.30;99.90
14283;DHT22;7225;59.282;18.344;2022-10-14T03:32:32;11.30;99.90
14283;DHT22;7225;59.282;18.344;2022-10-14T03:35:01;11.30;99.90
14283;DHT22;7225;59.282;18.344;2022-10-14T03:37:29;11.30;99.90
14283;DHT22;7225;59.282;18.344;2022-10-14T03:39:58;11.30;99.90
14283;DHT22;7225;59.282;18.344;2022-10-14T03:42:27;11.20;99.90
14283;DHT22;7225;59.282;18.344;2022-10-14T03:44:55;11.10;99.90
14283;DHT22;7225;59.282;18.344;2022-10-14T03:47:24;11.10;99.90
14283;DHT22;7225;59.282;18.344;2022-10-14T03:49:52;11.10;99.90
14283;DHT22;7225;59.282;18.344;2022-10-14T03:52:21;11.20;99.90
14283;DHT22;7225;59.282;18.344;2022-10-14T03:54:50;11.10;99.90
14283;DHT22;7225;59.282;18.344;2022-10-14T03:57:18;11.10;99.90
14283;DHT22;7225;59.282;18.344;2022-10-14T03:59:46;11.10;99.90
14283;DHT22;7225;59.282;18.344;2022-10-14T04:02:13;11.10;99.90
14283;DHT22;7225;59.282;18.344;2022-10-14T04:04:41;11.10;99.90
14283;DHT22;7225;59.282;18.344;2022-10-14T04:07:08;11.00;99.90
14283;DHT22;7225;59.282;18.344;2022-10-14T04:09:54;11.00;99.90
14283;DHT22;7225;59.282;18.344;2022-10-14T04:12:40;10.90;99.90
14283;DHT22;7225;59.282;18.344;2022-10-14T04:15:08;10.80;99.90
14283;DHT22;7225;59.282;18.344;2022-10-14T04:17:44;10.80;99.90
14283;DHT22;7225;59.282;18.344;2022-10-14T04:20:13;10.70;99.90
14283;DHT22;7225;59.282;18.344;2022-10-14T04:22:43;10.70;99.90
14283;DHT22;7225;59.282;18.344;2022-10-14T04:25:11;10.70;99.90
14283;DHT22;7225;59.282;18.344;2022-10-14T04:27:39;10.70;99.90
14283;DHT22;7225;59.282;18.344;2022-10-14T04:30:08;10.70;99.90
14283;DHT22;7225;59.282;18.344;2022-10-14T04:32:37;10.70;99.90
14283;DHT22;7225;59.282;18.344;2022-10-14T04:35:05;10.70;99.90
14283;DHT22;7225;59.282;18.344;2022-10-14T04:37:34;10.60;99.90
14283;DHT22;7225;59.282;18.344;2022-10-14T04:40:04;10.60;99.90
14283;DHT22;7225;59.282;18.344;2022-10-14T04:42:32;10.60;99.90
14283;DHT22;7225;59.282;18.344;2022-10-14T04:45:01;10.50;99.90
14283;DHT22;7225;59.282;18.344;2022-10-14T04:47:30;10.50;99.90
14283;DHT22;7225;59.282;18.344;2022-10-14T04:49:58;10.60;99.90
14283;DHT22;7225;59.282;18.344;2022-10-14T04:52:27;10.50;99.90
14283;DHT22;7225;59.282;18.344;2022-10-14T04:54:56;10.50;99.90
14283;DHT22;7225;59.282;18.344;2022-10-14T04:57:24;10.50;99.90
14283;DHT22;7225;59.282;18.344;2022-10-14T04:59:52;10.40;99.90
14283;DHT22;7225;59.282;18.344;2022-10-14T05:02:21;10.40;99.90
14283;DHT22;7225;59.282;18.344;2022-10-14T05:04:50;10.30;99.90
14283;DHT22;7225;59.282;18.344;2022-10-14T05:07:19;10.30;99.90
14283;DHT22;7225;59.282;18.344;2022-10-14T05:09:47;10.20;99.90
14283;DHT22;7225;59.282;18.344;2022-10-14T05:12:21;10.20;99.90
14283;DHT22;7225;59.282;18.344;2022-10-14T05:14:50;10.20;99.90
14283;DHT22;7225;59.282;18.344;2022-10-14T05:17:18;10.20;99.90
14283;DHT22;7225;59.282;18.344;2022-10-14T05:19:48;10.20;99.90
14283;DHT22;7225;59.282;18.344;2022-10-14T05:22:15;10.20;99.90
14283;DHT22;7225;59.282;18.344;2022-10-14T05:24:44;10.20;99.90
14283;DHT22;7225;59.282;18.344;2022-10-14T05:27:12;10.20;99.90
14283;DHT22;7225;59.282;18.344;2022-10-14T05:29:40;10.20;99.90
14283;DHT22;7225;59.282;18.344;2022-10-14T05:32:09;10.10;99.90
14283;DHT22;7225;59.282;18.344;2022-10-14T05:34:38;10.10;99.90
14283;DHT22;7225;59.282;18.344;2022-10-14T05:37:06;10.10;99.90
14283;DHT22;7225;59.282;18.344;2022-10-14T05:39:32;10.00;99.90
14283;DHT22;7225;59.282;18.344;2022-10-14T05:42:02;9.90;99.90
14283;DHT22;7225;59.282;18.344;2022-10-14T05:44:30;10.00;99.90
14283;DHT22;7225;59.282;18.344;2022-10-14T05:46:59;9.90;99.90
14283;DHT22;7225;59.282;18.344;2022-10-14T05:49:28;9.90;99.90
14283;DHT22;7225;59.282;18.344;2022-10-14T05:51:56;9.80;99.90
14283;DHT22;7225;59.282;18.344;2022-10-14T05:54:24;9.90;99.90
14283;DHT22;7225;59.282;18.344;2022-10-14T05:56:53;9.80;99.90
14283;DHT22;7225;59.282;18.344;2022-10-14T05:59:22;9.80;99.90
14283;DHT22;7225;59.282;18.344;2022-10-14T06:01:49;9.90;99.90
14283;DHT22;7225;59.282;18.344;2022-10-14T06:04:19;9.80;99.90
14283;DHT22;7225;59.282;18.344;2022-10-14T06:06:48;9.70;99.90
14283;DHT22;7225;59.282;18.344;2022-10-14T06:09:18;9.70;99.90
14283;DHT22;7225;59.282;18.344;2022-10-14T06:11:46;9.60;99.90
14283;DHT22;7225;59.282;18.344;2022-10-14T06:14:14;9.60;99.90
14283;DHT22;7225;59.282;18.344;2022-10-14T06:16:41;9.70;99.90
14283;DHT22;7225;59.282;18.344;2022-10-14T06:19:10;9.80;99.90
14283;DHT22;7225;59.282;18.344;2022-10-14T06:21:38;9.80;99.90
14283;DHT22;7225;59.282;18.344;2022-10-14T06:24:07;9.80;99.90
14283;DHT22;7225;59.282;18.344;2022-10-14T06:26:35;9.80;99.90
14283;DHT22;7225;59.282;18.344;2022-10-14T06:29:03;9.80;99.90
14283;DHT22;7225;59.282;18.344;2022-10-14T06:31:31;9.70;99.90
14283;DHT22;7225;59.282;18.344;2022-10-14T06:34:04;9.80;99.90
14283;DHT22;7225;59.282;18.344;2022-10-14T06:36:32;9.70;99.90
14283;DHT22;7225;59.282;18.344;2022-10-14T06:39:02;9.70;99.90
14283;DHT22;7225;59.282;18.344;2022-10-14T06:41:31;9.80;99.90
14283;DHT22;7225;59.282;18.344;2022-10-14T06:44:00;9.80;99.90
14283;DHT22;7225;59.282;18.344;2022-10-14T06:46:30;9.80;99.90
14283;DHT22;7225;59.282;18.344;2022-10-14T06:48:58;9.80;99.90
14283;DHT22;7225;59.282;18.344;2022-10-14T06:51:27;9.90;99.90
14283;DHT22;7225;59.282;18.344;2022-10-14T06:53:56;9.90;99.90
14283;DHT22;7225;59.282;18.344;2022-10-14T06:56:24;9.90;99.90
14283;DHT22;7225;59.282;18.344;2022-10-14T06:58:54;10.00;99.90
14283;DHT22;7225;59.282;18.344;2022-10-14T07:01:24;10.10;99.90
14283;DHT22;7225;59.282;18.344;2022-10-14T07:03:53;10.10;99.90
14283;DHT22;7225;59.282;18.344;2022-10-14T07:06:23;10.10;99.90
14283;DHT22;7225;59.282;18.344;2022-10-14T07:08:52;10.10;99.90
14283;DHT22;7225;59.282;18.344;2022-10-14T07:11:21;10.20;99.90
14283;DHT22;7225;59.282;18.344;2022-10-14T07:13:50;10.20;99.90
14283;DHT22;7225;59.282;18.344;2022-10-14T07:16:18;10.30;99.90
14283;DHT22;7225;59.282;18.344;2022-10-14T07:18:46;10.30;99.90
14283;DHT22;7225;59.282;18.344;2022-10-14T07:21:14;10.40;99.90
14283;DHT22;7225;59.282;18.344;2022-10-14T07:23:43;10.50;99.90
14283;DHT22;7225;59.282;18.344;2022-10-14T07:26:11;10.50;99.90
14283;DHT22;7225;59.282;18.344;2022-10-14T07:28:39;10.60;99.90
14283;DHT22;7225;59.282;18.344;2022-10-14T07:31:09;10.60;99.90
14283;DHT22;7225;59.282;18.344;2022-10-14T07:33:38;10.70;99.90
14283;DHT22;7225;59.282;18.344;2022-10-14T07:36:12;10.80;99.90
14283;DHT22;7225;59.282;18.344;2022-10-14T07:38:46;10.90;99.90
14283;DHT22;7225;59.282;18.344;2022-10-14T07:41:18;11.00;99.90
14283;DHT22;7225;59.282;18.344;2022-10-14T07:43:48;11.00;99.90
14283;DHT22;7225;59.282;18.344;2022-10-14T07:46:18;11.10;99.90
14283;DHT22;7225;59.282;18.344;2022-10-14T07:49:07;11.10;99.90
14283;DHT22;7225;59.282;18.344;2022-10-14T07:51:35;11.20;99.90
14283;DHT22;7225;59.282;18.344;2022-10-14T07:54:05;11.20;99.90
14283;DHT22;7225;59.282;18.344;2022-10-14T07:56:36;11.20;99.90
14283;DHT22;7225;59.282;18.344;2022-10-14T07:59:05;11.20;99.90
14283;DHT22;7225;59.282;18.344;2022-10-14T08:01:32;11.20;99.90
14283;DHT22;7225;59.282;18.344;2022-10-14T08:04:01;11.20;99.90
14283;DHT22;7225;59.282;18.344;2022-10-14T08:06:28;11.20;99.90
14283;DHT22;7225;59.282;18.344;2022-10-14T08:08:56;11.20;99.90
14283;DHT22;7225;59.282;18.344;2022-10-14T08:11:26;11.30;99.90
14283;DHT22;7225;59.282;18.344;2022-10-14T08:13:57;11.30;99.90
14283;DHT22;7225;59.282;18.344;2022-10-14T08:16:27;11.40;99.90
14283;DHT22;7225;59.282;18.344;2022-10-14T08:18:58;11.40;99.90
14283;DHT22;7225;59.282;18.344;2022-10-14T08:21:26;11.40;99.90
14283;DHT22;7225;59.282;18.344;2022-10-14T08:23:54;11.40;99.90
14283;DHT22;7225;59.282;18.344;2022-10-14T08:26:34;11.40;99.90
14283;DHT22;7225;59.282;18.344;2022-10-14T08:29:05;11.50;99.90
14283;DHT22;7225;59.282;18.344;2022-10-14T08:31:33;11.50;99.90
14283;DHT22;7225;59.282;18.344;2022-10-14T08:34:00;11.50;99.90
14283;DHT22;7225;59.282;18.344;2022-10-14T08:36:28;11.60;99.90
14283;DHT22;7225;59.282;18.344;2022-10-14T08:38:57;11.60;99.90
14283;DHT22;7225;59.282;18.344;2022-10-14T08:44:24;11.80;99.90
14283;DHT22;7225;59.282;18.344;2022-10-14T08:46:58;11.80;99.90
14283;DHT22;7225;59.282;18.344;2022-10-14T08:52:21;11.80;99.90
14283;DHT22;7225;59.282;18.344;2022-10-14T08:54:56;11.90;99.90
14283;DHT22;7225;59.282;18.344;2022-10-14T08:57:36;11.90;99.90
14283;DHT22;7225;59.282;18.344;2022-10-14T09:00:08;12.00;99.90
14283;DHT22;7225;59.282;18.344;2022-10-14T09:02:43;12.00;99.90
14283;DHT22;7225;59.282;18.344;2022-10-14T09:05:16;12.00;99.90
14283;DHT22;7225;59.282;18.344;2022-10-14T09:07:47;12.00;99.90
14283;DHT22;7225;59.282;18.344;2022-10-14T09:10:38;12.10;99.90
14283;DHT22;7225;59.282;18.344;2022-10-14T09:13:30;12.10;99.90
14283;DHT22;7225;59.282;18.344;2022-10-14T09:16:05;12.20;99.90
14283;DHT22;7225;59.282;18.344;2022-10-14T09:18:38;12.20;99.90
14283;DHT22;7225;59.282;18.344;2022-10-14T09:21:30;12.30;99.90
14283;DHT22;7225;59.282;18.344;2022-10-14T09:24:33;12.40;99.90
14283;DHT22;7225;59.282;18.344;2022-10-14T09:27:14;12.40;99.90
14283;DHT22;7225;59.282;18.344;2022-10-14T09:30:00;12.50;99.90
14283;DHT22;7225;59.282;18.344;2022-10-14T09:32:39;12.50;99.90
14283;DHT22;7225;59.282;18.344;2022-10-14T09:37:44;12.60;99.90
14283;DHT22;7225;59.282;18.344;2022-10-14T09:46:03;12.80;99.90
14283;DHT22;7225;59.282;18.344;2022-10-14T09:48:50;13.00;99.90
14283;DHT22;7225;59.282;18.344;2022-10-14T09:51:25;13.00;99.90
14283;DHT22;7225;59.282;18.344;2022-10-14T09:53:59;13.10;99.90
14283;DHT22;7225;59.282;18.344;2022-10-14T09:56:37;13.10;99.90
14283;DHT22;7225;59.282;18.344;2022-10-14T09:59:18;13.10;99.90
14283;DHT22;7225;59.282;18.344;2022-10-14T10:01:49;13.20;99.90
14283;DHT22;7225;59.282;18.344;2022-10-14T10:04:43;13.10;99.90
14283;DHT22;7225;59.282;18.344;2022-10-14T10:07:32;13.10;99.90
14283;DHT22;7225;59.282;18.344;2022-10-14T10:10:08;13.10;99.90
14283;DHT22;7225;59.282;18.344;2022-10-14T10:12:42;13.20;99.90
14283;DHT22;7225;59.282;18.344;2022-10-14T10:15:19;13.10;99.90
14283;DHT22;7225;59.282;18.344;2022-10-14T10:17:51;13.10;99.90
14283;DHT22;7225;59.282;18.344;2022-10-14T10:20:27;13.10;99.90
14283;DHT22;7225;59.282;18.344;2022-10-14T10:23:36;13.20;99.90
14283;DHT22;7225;59.282;18.344;2022-10-14T10:26:21;13.20;99.90
14283;DHT22;7225;59.282;18.344;2022-10-14T10:28:53;13.20;99.90
14283;DHT22;7225;59.282;18.344;2022-10-14T10:31:52;13.30;99.90
14283;DHT22;7225;59.282;18.344;2022-10-14T10:34:46;13.40;99.90
14283;DHT22;7225;59.282;18.344;2022-10-14T10:37:28;13.40;99.90
14283;DHT22;7225;59.282;18.344;2022-10-14T10:43:13;13.60;99.90
14283;DHT22;7225;59.282;18.344;2022-10-14T10:51:54;13.50;99.90
14283;DHT22;7225;59.282;18.344;2022-10-14T10:54:41;13.50;99.90
14283;DHT22;7225;59.282;18.344;2022-10-14T11:00:11;13.50;99.90
14283;DHT22;7225;59.282;18.344;2022-10-14T11:05:48;13.50;99.90
14283;DHT22;7225;59.282;18.344;2022-10-14T11:11:20;13.60;99.90
14283;DHT22;7225;59.282;18.344;2022-10-14T11:17:26;14.00;99.90
14283;DHT22;7225;59.282;18.344;2022-10-14T11:20:07;14.20;99.90
14283;DHT22;7225;59.282;18.344;2022-10-14T11:28:45;14.90;99.90
14283;DHT22;7225;59.282;18.344;2022-10-14T11:31:41;14.90;99.90
14283;DHT22;7225;59.282;18.344;2022-10-14T11:43:03;15.00;99.90
14283;DHT22;7225;59.282;18.344;2022-10-14T11:48:32;15.00;99.90
14283;DHT22;7225;59.282;18.344;2022-10-14T11:51:22;15.40;99.90
14283;DHT22;7225;59.282;18.344;2022-10-14T11:54:02;15.60;99.90
14283;DHT22;7225;59.282;18.344;2022-10-14T11:56:49;15.50;99.90
14283;DHT22;7225;59.282;18.344;2022-10-14T12:05:14;16.10;99.90
14283;DHT22;7225;59.282;18.344;2022-10-14T12:10:36;16.20;99.90
14283;DHT22;7225;59.282;18.344;2022-10-14T12:13:11;16.10;99.90
14283;DHT22;7225;59.282;18.344;2022-10-14T12:15:47;16.20;99.90
14283;DHT22;7225;59.282;18.344;2022-10-14T12:18:16;16.40;99.90
14283;DHT22;7225;59.282;18.344;2022-10-14T12:20:56;16.40;99.90
14283;DHT22;7225;59.282;18.344;2022-10-14T12:23:37;16.60;99.90
14283;DHT22;7225;59.282;18.344;2022-10-14T12:28:49;16.50;99.90
14283;DHT22;7225;59.282;18.344;2022-10-14T12:31:35;16.60;99.90
14283;DHT22;7225;59.282;18.344;2022-10-14T12:36:48;16.90;99.90
14283;DHT22;7225;59.282;18.344;2022-10-14T12:39:21;16.70;99.90
14283;DHT22;7225;59.282;18.344;2022-10-14T12:42:04;16.70;99.90
14283;DHT22;7225;59.282;18.344;2022-10-14T12:47:03;16.70;99.90
14283;DHT22;7225;59.282;18.344;2022-10-14T12:49:33;16.80;99.90
14283;DHT22;7225;59.282;18.344;2022-10-14T12:52:07;17.00;99.90
14283;DHT22;7225;59.282;18.344;2022-10-14T12:54:37;17.00;99.90
14283;DHT22;7225;59.282;18.344;2022-10-14T12:57:28;17.10;99.90
14283;DHT22;7225;59.282;18.344;2022-10-14T12:59:59;17.10;99.90
14283;DHT22;7225;59.282;18.344;2022-10-14T13:02:33;17.30;99.90
14283;DHT22;7225;59.282;18.344;2022-10-14T13:05:08;17.40;99.90
14283;DHT22;7225;59.282;18.344;2022-10-14T13:07:44;17.40;99.90
14283;DHT22;7225;59.282;18.344;2022-10-14T13:18:56;17.60;99.90
14283;DHT22;7225;59.282;18.344;2022-10-14T13:29:29;17.50;99.90
14283;DHT22;7225;59.282;18.344;2022-10-14T13:37:55;17.20;99.90
14283;DHT22;7225;59.282;18.344;2022-10-14T13:40:36;16.90;99.90
14283;DHT22;7225;59.282;18.344;2022-10-14T13:43:12;16.70;99.90
14283;DHT22;7225;59.282;18.344;2022-10-14T13:45:50;16.60;99.90
14283;DHT22;7225;59.282;18.344;2022-10-14T13:48:28;16.40;99.90
14283;DHT22;7225;59.282;18.344;2022-10-14T13:51:23;16.30;99.90
14283;DHT22;7225;59.282;18.344;2022-10-14T13:54:28;16.20;99.90
14283;DHT22;7225;59.282;18.344;2022-10-14T13:57:12;16.00;99.90
14283;DHT22;7225;59.282;18.344;2022-10-14T14:00:01;15.80;99.90
14283;DHT22;7225;59.282;18.344;2022-10-14T14:02:51;15.60;99.90
14283;DHT22;7225;59.282;18.344;2022-10-14T14:05:34;15.60;99.90
14283;DHT22;7225;59.282;18.344;2022-10-14T14:08:03;15.50;99.90
14283;DHT22;7225;59.282;18.344;2022-10-14T14:11:00;15.40;99.90
14283;DHT22;7225;59.282;18.344;2022-10-14T14:13:58;15.40;99.90
14283;DHT22;7225;59.282;18.344;2022-10-14T14:16:33;15.30;99.90
14283;DHT22;7225;59.282;18.344;2022-10-14T14:19:03;15.10;99.90
14283;DHT22;7225;59.282;18.344;2022-10-14T14:21:37;15.00;99.90
14283;DHT22;7225;59.282;18.344;2022-10-14T14:24:15;14.90;99.90
14283;DHT22;7225;59.282;18.344;2022-10-14T14:26:45;14.80;99.90
14283;DHT22;7225;59.282;18.344;2022-10-14T14:29:16;14.80;99.90
14283;DHT22;7225;59.282;18.344;2022-10-14T14:31:45;14.80;99.90
14283;DHT22;7225;59.282;18.344;2022-10-14T14:34:34;14.80;99.90
14283;DHT22;7225;59.282;18.344;2022-10-14T14:37:02;14.80;99.90
14283;DHT22;7225;59.282;18.344;2022-10-14T14:40:14;14.70;99.90
14283;DHT22;7225;59.282;18.344;2022-10-14T14:42:45;14.70;99.90
14283;DHT22;7225;59.282;18.344;2022-10-14T14:45:26;14.60;99.90
14283;DHT22;7225;59.282;18.344;2022-10-14T14:48:00;14.60;99.90
14283;DHT22;7225;59.282;18.344;2022-10-14T14:50:39;14.50;99.90
14283;DHT22;7225;59.282;18.344;2022-10-14T14:55:57;14.40;99.90
14283;DHT22;7225;59.282;18.344;2022-10-14T14:58:32;14.40;99.90
14283;DHT22;7225;59.282;18.344;2022-10-14T15:01:02;14.30;99.90
14283;DHT22;7225;59.282;18.344;2022-10-14T15:03:34;14.30;99.90
14283;DHT22;7225;59.282;18.344;2022-10-14T15:06:35;14.30;99.90
14283;DHT22;7225;59.282;18.344;2022-10-14T15:09:11;14.10;99.90
14283;DHT22;7225;59.282;18.344;2022-10-14T15:11:51;14.10;99.90
14283;DHT22;7225;59.282;18.344;2022-10-14T15:14:33;14.00;99.90
14283;DHT22;7225;59.282;18.344;2022-10-14T15:17:02;13.90;99.90
14283;DHT22;7225;59.282;18.344;2022-10-14T15:19:35;13.90;99.90
14283;DHT22;7225;59.282;18.344;2022-10-14T15:22:21;13.80;99.90
14283;DHT22;7225;59.282;18.344;2022-10-14T15:25:12;13.70;99.90
14283;DHT22;7225;59.282;18.344;2022-10-14T15:27:52;13.70;99.90
14283;DHT22;7225;59.282;18.344;2022-10-14T15:30:26;13.60;99.90
14283;DHT22;7225;59.282;18.344;2022-10-14T15:33:20;13.50;99.90
14283;DHT22;7225;59.282;18.344;2022-10-14T15:36:00;13.50;99.90
14283;DHT22;7225;59.282;18.344;2022-10-14T15:38:29;13.40;99.90
14283;DHT22;7225;59.282;18.344;2022-10-14T15:41:02;13.30;99.90
14283;DHT22;7225;59.282;18.344;2022-10-14T15:43:31;13.30;99.90
14283;DHT22;7225;59.282;18.344;2022-10-14T15:46:00;13.30;99.90
14283;DHT22;7225;59.282;18.344;2022-10-14T15:48:50;13.20;99.90
14283;DHT22;7225;59.282;18.344;2022-10-14T15:51:21;13.20;99.90
14283;DHT22;7225;59.282;18.344;2022-10-14T15:53:53;13.10;99.90
14283;DHT22;7225;59.282;18.344;2022-10-14T15:56:22;13.10;99.90
14283;DHT22;7225;59.282;18.344;2022-10-14T15:58:50;13.10;99.90
14283;DHT22;7225;59.282;18.344;2022-10-14T16:01:20;13.10;99.90
14283;DHT22;7225;59.282;18.344;2022-10-14T16:03:49;13.00;99.90
14283;DHT22;7225;59.282;18.344;2022-10-14T16:06:18;13.00;99.90
14283;DHT22;7225;59.282;18.344;2022-10-14T16:08:49;12.90;99.90
14283;DHT22;7225;59.282;18.344;2022-10-14T16:11:27;12.90;99.90
14283;DHT22;7225;59.282;18.344;2022-10-14T16:13:56;12.90;99.90
14283;DHT22;7225;59.282;18.344;2022-10-14T16:16:35;12.80;99.90
14283;DHT22;7225;59.282;18.344;2022-10-14T16:19:06;12.90;99.90
14283;DHT22;7225;59.282;18.344;2022-10-14T16:21:33;12.90;99.90
14283;DHT22;7225;59.282;18.344;2022-10-14T16:24:02;12.80;99.90
14283;DHT22;7225;59.282;18.344;2022-10-14T16:26:32;12.80;99.90
14283;DHT22;7225;59.282;18.344;2022-10-14T16:29:00;12.70;99.90
14283;DHT22;7225;59.282;18.344;2022-10-14T16:31:31;12.70;99.90
14283;DHT22;7225;59.282;18.344;2022-10-14T16:33:59;12.70;99.90
14283;DHT22;7225;59.282;18.344;2022-10-14T16:36:28;12.60;99.90
14283;DHT22;7225;59.282;18.344;2022-10-14T16:38:57;12.60;99.90
14283;DHT22;7225;59.282;18.344;2022-10-14T16:41:28;12.70;99.90
14283;DHT22;7225;59.282;18.344;2022-10-14T16:43:58;12.60;99.90
14283;DHT22;7225;59.282;18.344;2022-10-14T16:46:26;12.60;99.90
14283;DHT22;7225;59.282;18.344;2022-10-14T16:49:14;12.50;99.90
14283;DHT22;7225;59.282;18.344;2022-10-14T16:51:44;12.50;99.90
14283;DHT22;7225;59.282;18.344;2022-10-14T16:54:12;12.50;99.90
14283;DHT22;7225;59.282;18.344;2022-10-14T16:56:41;12.40;99.90
14283;DHT22;7225;59.282;18.344;2022-10-14T16:59:21;12.40;99.90
14283;DHT22;7225;59.282;18.344;2022-10-14T17:01:50;12.40;99.90
14283;DHT22;7225;59.282;18.344;2022-10-14T17:04:18;12.30;99.90
14283;DHT22;7225;59.282;18.344;2022-10-14T17:06:47;12.40;99.90
14283;DHT22;7225;59.282;18.344;2022-10-14T17:09:17;12.30;99.90
14283;DHT22;7225;59.282;18.344;2022-10-14T17:11:46;12.30;99.90
14283;DHT22;7225;59.282;18.344;2022-10-14T17:14:16;12.20;99.90
14283;DHT22;7225;59.282;18.344;2022-10-14T17:16:44;12.20;99.90
14283;DHT22;7225;59.282;18.344;2022-10-14T17:19:18;12.20;99.90
14283;DHT22;7225;59.282;18.344;2022-10-14T17:21:46;12.20;99.90
14283;DHT22;7225;59.282;18.344;2022-10-14T17:24:15;12.10;99.90
14283;DHT22;7225;59.282;18.344;2022-10-14T17:26:44;12.20;99.90
14283;DHT22;7225;59.282;18.344;2022-10-14T17:29:13;12.20;99.90
14283;DHT22;7225;59.282;18.344;2022-10-14T17:31:41;12.10;99.90
14283;DHT22;7225;59.282;18.344;2022-10-14T17:34:10;12.10;99.90
14283;DHT22;7225;59.282;18.344;2022-10-14T17:36:39;12.10;99.90
14283;DHT22;7225;59.282;18.344;2022-10-14T17:39:08;12.10;99.90
14283;DHT22;7225;59.282;18.344;2022-10-14T17:41:51;12.10;99.90
14283;DHT22;7225;59.282;18.344;2022-10-14T17:44:19;12.10;99.90
14283;DHT22;7225;59.282;18.344;2022-10-14T17:46:47;12.10;99.90
14283;DHT22;7225;59.282;18.344;2022-10-14T17:49:15;12.10;99.90
14283;DHT22;7225;59.282;18.344;2022-10-14T17:51:43;12.00;99.90
14283;DHT22;7225;59.282;18.344;2022-10-14T17:54:11;12.10;99.90
14283;DHT22;7225;59.282;18.344;2022-10-14T17:56:40;12.10;99.90
14283;DHT22;7225;59.282;18.344;2022-10-14T17:59:11;12.10;99.90
14283;DHT22;7225;59.282;18.344;2022-10-14T18:01:41;12.10;99.90
14283;DHT22;7225;59.282;18.344;2022-10-14T18:04:29;12.00;99.90